Time;durP1;ratioP1;P1;durP2;ratioP2;P2;SDS_P1;SDS_P2;PMS_P1;PMS_P2;Temp;Humidity;BMP_temperature;BMP_pressure;BME280_temperature;BME280_humidity;BME280_pressure;Samples;Min_cycle;Max_cycle;Signal;HPM_P1;HPM_P2
2021/07/11 00:00:51;;;;;;;;;;;19.50;99.90;;;;;;5091292;28;19955;-67
2021/07/11 00:03:18;;;;;;;;;;;19.40;99.90;;;;;;5087352;28;19993;-67
2021/07/11 00:05:45;;;;;;;;;;;19.30;99.90;;;;;;5075035;28;19992;-67
2021/07/11 00:08:11;;;;;;;;;;;19.30;99.90;;;;;;5084114;28;19925;-67
2021/07/11 00:10:38;;;;;;;;;;;19.20;99.90;;;;;;5074689;28;19947;-67
2021/07/11 00:13:05;;;;;;;;;;;19.10;99.90;;;;;;5088193;28;19959;-67
2021/07/11 00:15:31;;;;;;;;;;;19.00;99.90;;;;;;5096583;28;19985;-67
2021/07/11 00:18:00;;;;;;;;;;;18.90;99.90;;;;;;5089495;28;19959;-67
2021/07/11 00:20:27;;;;;;;;;;;18.90;99.90;;;;;;5095966;28;20375;-67
2021/07/11 00:22:54;;;;;;;;;;;18.90;99.90;;;;;;5083680;28;20053;-67
2021/07/11 00:25:21;;;;;;;;;;;18.90;99.90;;;;;;5104955;28;20031;-67
2021/07/11 00:27:48;;;;;;;;;;;18.90;99.90;;;;;;5081977;28;19952;-67
2021/07/11 00:30:15;;;;;;;;;;;19.00;99.90;;;;;;5101040;28;19999;-67
2021/07/11 00:32:42;;;;;;;;;;;19.00;99.90;;;;;;5086931;28;19947;-67
2021/07/11 00:35:10;;;;;;;;;;;19.00;99.90;;;;;;5098581;28;19941;-67
2021/07/11 00:37:37;;;;;;;;;;;19.10;99.90;;;;;;5070042;28;19919;-67
2021/07/11 00:40:04;;;;;;;;;;;19.10;99.90;;;;;;5071314;28;19928;-67
2021/07/11 00:42:31;;;;;;;;;;;19.10;99.90;;;;;;5091220;28;20338;-67
2021/07/11 00:44:58;;;;;;;;;;;19.10;99.90;;;;;;5085180;28;21197;-67
2021/07/11 00:47:24;;;;;;;;;;;19.20;99.90;;;;;;5091606;28;19959;-67
2021/07/11 00:49:51;;;;;;;;;;;19.10;99.90;;;;;;5084710;28;19963;-67
2021/07/11 00:52:18;;;;;;;;;;;19.20;99.90;;;;;;5082785;28;19961;-67
2021/07/11 00:54:44;;;;;;;;;;;19.20;99.90;;;;;;5091196;28;19929;-67
2021/07/11 00:57:11;;;;;;;;;;;19.20;99.90;;;;;;5093455;28;19960;-67
2021/07/11 00:59:38;;;;;;;;;;;19.20;99.90;;;;;;5078914;28;19947;-67
2021/07/11 01:02:05;;;;;;;;;;;19.20;99.90;;;;;;5077215;28;20027;-67
2021/07/11 01:04:37;;;;;;;;;;;19.30;99.90;;;;;;5086524;28;19920;-70
2021/07/11 01:07:06;;;;;;;;;;;19.30;99.90;;;;;;5085602;28;19974;-67
2021/07/11 01:09:36;;;;;;;;;;;19.20;99.90;;;;;;5068859;28;19983;-67
2021/07/11 01:12:07;;;;;;;;;;;19.20;99.90;;;;;;5085783;28;19928;-67
2021/07/11 01:14:34;;;;;;;;;;;19.20;99.90;;;;;;5090893;28;20018;-67
2021/07/11 01:17:02;;;;;;;;;;;19.10;99.90;;;;;;5092406;28;20344;-67
2021/07/11 01:19:29;;;;;;;;;;;19.00;99.90;;;;;;5089721;28;19920;-67
2021/07/11 01:21:59;;;;;;;;;;;19.00;99.90;;;;;;5080965;28;20290;-67
2021/07/11 01:24:31;;;;;;;;;;;18.90;99.90;;;;;;5074583;28;19948;-67
2021/07/11 01:26:58;;;;;;;;;;;18.80;99.90;;;;;;5094845;28;19923;-67
2021/07/11 01:29:25;;;;;;;;;;;18.70;99.90;;;;;;5087257;28;19955;-67
2021/07/11 01:31:52;;;;;;;;;;;18.70;99.90;;;;;;5081090;28;19986;-67
2021/07/11 01:34:18;;;;;;;;;;;18.70;99.90;;;;;;5095558;28;19919;-67
2021/07/11 01:36:45;;;;;;;;;;;18.70;99.90;;;;;;5085731;28;19955;-67
2021/07/11 01:39:12;;;;;;;;;;;18.80;99.90;;;;;;5088918;28;19920;-68
2021/07/11 01:41:43;;;;;;;;;;;18.80;99.90;;;;;;5082154;28;20636;-67
2021/07/11 01:44:10;;;;;;;;;;;18.80;99.90;;;;;;5095261;28;19959;-67
2021/07/11 01:46:40;;;;;;;;;;;18.90;99.90;;;;;;5090286;28;20323;-67
2021/07/11 01:49:11;;;;;;;;;;;18.90;99.90;;;;;;5096102;28;19927;-67
2021/07/11 01:51:38;;;;;;;;;;;18.90;99.90;;;;;;5088935;28;19928;-67
2021/07/11 01:54:05;;;;;;;;;;;18.90;99.90;;;;;;5097162;28;19920;-67
2021/07/11 01:56:33;;;;;;;;;;;18.90;99.90;;;;;;5096548;28;19978;-67
2021/07/11 01:59:00;;;;;;;;;;;18.90;99.90;;;;;;5080554;28;20370;-67
2021/07/11 02:01:26;;;;;;;;;;;18.80;99.90;;;;;;5082982;28;20344;-67
2021/07/11 02:03:53;;;;;;;;;;;18.90;99.90;;;;;;5084046;28;20427;-67
2021/07/11 02:06:20;;;;;;;;;;;18.90;99.90;;;;;;5091921;28;19951;-67
2021/07/11 02:08:47;;;;;;;;;;;18.90;99.90;;;;;;5080444;28;19920;-67
2021/07/11 02:11:14;;;;;;;;;;;18.80;99.90;;;;;;5092726;28;21090;-67
2021/07/11 02:13:41;;;;;;;;;;;18.80;99.90;;;;;;5062016;28;19966;-67
2021/07/11 02:16:10;;;;;;;;;;;18.80;99.90;;;;;;5088652;28;19920;-67
2021/07/11 02:18:38;;;;;;;;;;;18.80;99.90;;;;;;5063542;28;19939;-67
2021/07/11 02:21:06;;;;;;;;;;;18.80;99.90;;;;;;5073686;28;20005;-67
2021/07/11 02:23:33;;;;;;;;;;;18.80;99.90;;;;;;5078913;28;20094;-67
2021/07/11 02:26:00;;;;;;;;;;;18.80;99.90;;;;;;5090869;28;20272;-67
2021/07/11 02:28:31;;;;;;;;;;;18.80;99.90;;;;;;5081746;28;19920;-67
2021/07/11 02:31:00;;;;;;;;;;;18.80;99.90;;;;;;5085642;28;19920;-67
2021/07/11 02:33:36;;;;;;;;;;;18.80;99.90;;;;;;5086140;28;20033;-67
2021/07/11 02:36:11;;;;;;;;;;;18.80;99.90;;;;;;5097360;28;20011;-67
2021/07/11 02:38:43;;;;;;;;;;;18.80;99.90;;;;;;5086215;28;20040;-67
2021/07/11 02:41:11;;;;;;;;;;;18.80;99.90;;;;;;5088223;28;19963;-67
2021/07/11 02:43:38;;;;;;;;;;;18.70;99.90;;;;;;5089892;28;19928;-67
2021/07/11 02:46:05;;;;;;;;;;;18.60;99.90;;;;;;5087838;28;19927;-67
2021/07/11 02:48:34;;;;;;;;;;;18.60;99.90;;;;;;5087343;28;20382;-67
2021/07/11 02:51:01;;;;;;;;;;;18.50;99.90;;;;;;5079787;28;19966;-67
2021/07/11 02:53:28;;;;;;;;;;;18.50;99.90;;;;;;5081538;28;19974;-67
2021/07/11 02:55:56;;;;;;;;;;;18.50;99.90;;;;;;5091382;28;19967;-67
2021/07/11 02:58:24;;;;;;;;;;;18.50;99.90;;;;;;5085562;28;20224;-67
2021/07/11 03:00:55;;;;;;;;;;;18.50;99.90;;;;;;5062216;28;19996;-67
2021/07/11 03:03:22;;;;;;;;;;;18.50;99.90;;;;;;5085889;28;20241;-67
2021/07/11 03:05:48;;;;;;;;;;;18.60;99.90;;;;;;5091465;28;19967;-67
2021/07/11 03:08:15;;;;;;;;;;;18.50;99.90;;;;;;5093816;28;19920;-67
2021/07/11 03:10:42;;;;;;;;;;;18.50;99.90;;;;;;5078513;28;19974;-67
2021/07/11 03:13:09;;;;;;;;;;;18.50;99.90;;;;;;5095787;28;19974;-67
2021/07/11 03:15:36;;;;;;;;;;;18.50;99.90;;;;;;5088818;28;20446;-67
2021/07/11 03:18:04;;;;;;;;;;;18.50;99.90;;;;;;5066183;28;19966;-67
2021/07/11 03:20:30;;;;;;;;;;;18.50;99.90;;;;;;5071775;28;19969;-67
2021/07/11 03:22:58;;;;;;;;;;;18.60;99.90;;;;;;5091138;28;20002;-67
2021/07/11 03:25:25;;;;;;;;;;;18.50;99.90;;;;;;5094016;28;19959;-67
2021/07/11 03:27:52;;;;;;;;;;;18.50;99.90;;;;;;5066607;28;19974;-67
2021/07/11 03:30:20;;;;;;;;;;;18.50;99.90;;;;;;5085956;28;20370;-67
2021/07/11 03:32:55;;;;;;;;;;;18.50;99.90;;;;;;5086614;28;19958;-67
2021/07/11 03:35:32;;;;;;;;;;;18.50;99.90;;;;;;5093557;28;19969;-67
2021/07/11 03:37:59;;;;;;;;;;;18.50;99.90;;;;;;5091645;28;20046;-67
2021/07/11 03:40:28;;;;;;;;;;;18.50;99.90;;;;;;5094929;28;19961;-67
2021/07/11 03:42:55;;;;;;;;;;;18.40;99.90;;;;;;5088241;28;19975;-67
2021/07/11 03:45:22;;;;;;;;;;;18.40;99.90;;;;;;5091105;28;19952;-66
2021/07/11 03:47:52;;;;;;;;;;;18.40;99.90;;;;;;5092216;28;19996;-67
2021/07/11 03:50:20;;;;;;;;;;;18.40;99.90;;;;;;5103071;28;20586;-67
2021/07/11 03:52:49;;;;;;;;;;;18.50;99.90;;;;;;5096132;28;20335;-67
2021/07/11 03:55:17;;;;;;;;;;;18.50;99.90;;;;;;5097757;28;19951;-67
2021/07/11 03:57:45;;;;;;;;;;;18.50;99.90;;;;;;5069233;28;19966;-67
2021/07/11 04:00:14;;;;;;;;;;;18.50;99.90;;;;;;5091910;28;19921;-67
2021/07/11 04:02:41;;;;;;;;;;;18.50;99.90;;;;;;5094285;28;19973;-67
2021/07/11 04:05:08;;;;;;;;;;;18.50;99.90;;;;;;5072108;28;19950;-67
2021/07/11 04:07:35;;;;;;;;;;;18.50;99.90;;;;;;5078723;28;19962;-67
2021/07/11 04:10:03;;;;;;;;;;;18.50;99.90;;;;;;5092876;28;19950;-67
2021/07/11 04:12:30;;;;;;;;;;;18.40;99.90;;;;;;5089893;28;20591;-67
2021/07/11 04:14:56;;;;;;;;;;;18.50;99.90;;;;;;5095545;28;20404;-67
2021/07/11 04:17:24;;;;;;;;;;;18.40;99.90;;;;;;5090277;28;20292;-67
2021/07/11 04:19:55;;;;;;;;;;;18.40;99.90;;;;;;5088115;28;19962;-67
2021/07/11 04:22:22;;;;;;;;;;;18.40;99.90;;;;;;5088927;28;19927;-67
2021/07/11 04:24:50;;;;;;;;;;;18.40;99.90;;;;;;5091348;28;19958;-67
2021/07/11 04:27:17;;;;;;;;;;;18.40;99.90;;;;;;5071689;28;19951;-67
2021/07/11 04:29:44;;;;;;;;;;;18.50;99.90;;;;;;5077306;28;20000;-67
2021/07/11 04:32:10;;;;;;;;;;;18.50;99.90;;;;;;5093136;28;19924;-67
2021/07/11 04:34:39;;;;;;;;;;;18.50;99.90;;;;;;5095500;28;19967;-67
2021/07/11 04:37:06;;;;;;;;;;;18.50;99.90;;;;;;5092486;28;19955;-67
2021/07/11 04:39:32;;;;;;;;;;;18.50;99.90;;;;;;5089221;28;19995;-67
2021/07/11 04:42:00;;;;;;;;;;;18.50;99.90;;;;;;5092279;28;19920;-67
2021/07/11 04:44:27;;;;;;;;;;;18.50;99.90;;;;;;5088651;28;20462;-67
2021/07/11 04:46:53;;;;;;;;;;;18.50;99.90;;;;;;5092721;28;19947;-67
2021/07/11 04:49:22;;;;;;;;;;;18.60;99.90;;;;;;5072310;28;19966;-67
2021/07/11 04:51:53;;;;;;;;;;;18.60;99.90;;;;;;5069400;28;19978;-67
2021/07/11 04:54:20;;;;;;;;;;;18.60;99.90;;;;;;5078245;28;19920;-67
2021/07/11 04:56:46;;;;;;;;;;;18.60;99.90;;;;;;5073917;28;20390;-67
2021/07/11 04:59:13;;;;;;;;;;;18.60;99.90;;;;;;5094673;28;19966;-67
2021/07/11 05:01:40;;;;;;;;;;;18.60;99.90;;;;;;5072977;28;19948;-67
2021/07/11 05:04:07;;;;;;;;;;;18.60;99.90;;;;;;5090623;28;19928;-67
2021/07/11 05:06:34;;;;;;;;;;;18.60;99.90;;;;;;5084446;28;19981;-67
2021/07/11 05:09:00;;;;;;;;;;;18.60;99.90;;;;;;5075867;28;19973;-67
2021/07/11 05:11:27;;;;;;;;;;;18.60;99.90;;;;;;5066842;28;20748;-67
2021/07/11 05:13:54;;;;;;;;;;;18.60;99.90;;;;;;5080486;28;19924;-66
2021/07/11 05:16:26;;;;;;;;;;;18.60;99.90;;;;;;5083732;28;19927;-67
2021/07/11 05:18:53;;;;;;;;;;;18.50;99.90;;;;;;5076243;28;20993;-67
2021/07/11 05:21:20;;;;;;;;;;;18.50;99.90;;;;;;5060974;28;20055;-67
2021/07/11 05:23:47;;;;;;;;;;;18.50;99.90;;;;;;5079926;28;19963;-67
2021/07/11 05:26:14;;;;;;;;;;;18.60;99.90;;;;;;5084630;28;20449;-67
2021/07/11 05:28:41;;;;;;;;;;;18.50;99.90;;;;;;5065263;28;19967;-67
2021/07/11 05:31:08;;;;;;;;;;;18.60;99.90;;;;;;5096465;28;19966;-67
2021/07/11 05:33:34;;;;;;;;;;;18.70;99.90;;;;;;5068531;28;19920;-67
2021/07/11 05:36:01;;;;;;;;;;;18.70;99.90;;;;;;5090577;28;19982;-67
2021/07/11 05:38:28;;;;;;;;;;;18.80;99.90;;;;;;5071207;28;19962;-67
2021/07/11 05:40:54;;;;;;;;;;;18.90;99.90;;;;;;5089644;28;20058;-67
2021/07/11 05:43:21;;;;;;;;;;;18.90;99.90;;;;;;5088665;28;20027;-67
2021/07/11 05:45:48;;;;;;;;;;;19.00;99.90;;;;;;5084713;28;19963;-67
2021/07/11 05:48:14;;;;;;;;;;;19.10;99.90;;;;;;5069468;28;19929;-67
2021/07/11 05:50:41;;;;;;;;;;;19.30;99.90;;;;;;5090169;28;19970;-67
2021/07/11 05:53:10;;;;;;;;;;;19.40;99.90;;;;;;5074074;28;19963;-67
2021/07/11 05:55:40;;;;;;;;;;;19.50;99.90;;;;;;5066820;28;19953;-67
2021/07/11 05:58:07;;;;;;;;;;;19.60;99.90;;;;;;5064131;28;19976;-67
2021/07/11 06:00:34;;;;;;;;;;;19.70;99.90;;;;;;5086979;28;20023;-67
2021/07/11 06:03:01;;;;;;;;;;;19.80;99.90;;;;;;5084136;28;19947;-67
2021/07/11 06:05:28;;;;;;;;;;;19.90;99.90;;;;;;5089009;28;20537;-67
2021/07/11 06:07:54;;;;;;;;;;;19.90;99.90;;;;;;5081182;28;20006;-66
2021/07/11 06:10:25;;;;;;;;;;;20.00;99.90;;;;;;5079708;28;19963;-67
2021/07/11 06:12:51;;;;;;;;;;;20.00;99.90;;;;;;5060834;28;19920;-67
2021/07/11 06:15:18;;;;;;;;;;;20.00;99.90;;;;;;5060647;28;20320;-67
2021/07/11 06:17:45;;;;;;;;;;;20.00;99.90;;;;;;5071323;28;19921;-67
2021/07/11 06:20:11;;;;;;;;;;;19.90;99.90;;;;;;5075750;28;19921;-67
2021/07/11 06:22:39;;;;;;;;;;;19.90;99.90;;;;;;5060365;28;20192;-67
2021/07/11 06:25:08;;;;;;;;;;;19.90;99.90;;;;;;5072676;28;19982;-67
2021/07/11 06:27:36;;;;;;;;;;;19.90;99.90;;;;;;5068962;28;19932;-67
2021/07/11 06:30:04;;;;;;;;;;;19.90;99.90;;;;;;5069602;28;19955;-67
2021/07/11 06:32:31;;;;;;;;;;;19.90;99.90;;;;;;5062233;28;20371;-67
2021/07/11 06:34:57;;;;;;;;;;;19.90;99.90;;;;;;5099933;28;19955;-67
2021/07/11 06:37:24;;;;;;;;;;;19.90;99.90;;;;;;5088911;28;20371;-67
2021/07/11 06:39:51;;;;;;;;;;;19.90;99.90;;;;;;5102475;28;19969;-67
2021/07/11 06:42:17;;;;;;;;;;;19.80;99.90;;;;;;5075557;28;20315;-67
2021/07/11 06:44:44;;;;;;;;;;;19.70;99.90;;;;;;5101005;28;19978;-67
2021/07/11 06:47:11;;;;;;;;;;;19.70;99.90;;;;;;5091294;28;19920;-67
2021/07/11 06:49:37;;;;;;;;;;;19.60;99.90;;;;;;5077280;28;20018;-67
2021/07/11 06:52:04;;;;;;;;;;;19.60;99.90;;;;;;5096686;28;20226;-67
2021/07/11 06:54:31;;;;;;;;;;;19.60;99.90;;;;;;5093123;28;19920;-67
2021/07/11 06:56:57;;;;;;;;;;;19.50;99.90;;;;;;5087512;28;20022;-67
2021/07/11 06:59:24;;;;;;;;;;;19.50;99.90;;;;;;5090232;28;19973;-67
2021/07/11 07:01:51;;;;;;;;;;;19.50;99.90;;;;;;5085860;28;19965;-67
2021/07/11 07:04:17;;;;;;;;;;;19.50;99.90;;;;;;5103848;28;19983;-67
2021/07/11 07:06:44;;;;;;;;;;;19.50;99.90;;;;;;5094150;28;19974;-67
2021/07/11 07:09:11;;;;;;;;;;;19.50;99.90;;;;;;5081247;28;19982;-67
2021/07/11 07:11:38;;;;;;;;;;;19.50;99.90;;;;;;5067681;28;20023;-67
2021/07/11 07:14:04;;;;;;;;;;;19.40;99.90;;;;;;5101221;28;20379;-67
2021/07/11 07:16:31;;;;;;;;;;;19.40;99.90;;;;;;5080453;28;19967;-67
2021/07/11 07:18:57;;;;;;;;;;;19.30;99.90;;;;;;5077016;28;19920;-67
2021/07/11 07:21:24;;;;;;;;;;;19.30;99.90;;;;;;5088592;28;19963;-67
2021/07/11 07:23:51;;;;;;;;;;;19.20;99.90;;;;;;5077626;28;19955;-67
2021/07/11 07:26:18;;;;;;;;;;;19.00;99.90;;;;;;5088707;28;19970;-67
2021/07/11 07:28:44;;;;;;;;;;;18.90;99.90;;;;;;5064876;28;19982;-68
2021/07/11 07:31:11;;;;;;;;;;;18.80;99.90;;;;;;5054179;28;19968;-68
2021/07/11 07:33:38;;;;;;;;;;;18.70;99.90;;;;;;5068197;28;19974;-67
2021/07/11 07:36:05;;;;;;;;;;;18.60;99.90;;;;;;5070544;28;20292;-67
2021/07/11 07:38:34;;;;;;;;;;;18.60;99.90;;;;;;5053720;28;19925;-67
2021/07/11 07:41:01;;;;;;;;;;;18.60;99.90;;;;;;5069923;28;19975;-67
2021/07/11 07:43:27;;;;;;;;;;;18.50;99.90;;;;;;5071058;28;19924;-67
2021/07/11 07:45:54;;;;;;;;;;;18.50;99.90;;;;;;5075020;28;19921;-67
2021/07/11 07:48:21;;;;;;;;;;;18.50;99.90;;;;;;5053299;28;20391;-67
2021/07/11 07:50:47;;;;;;;;;;;18.50;99.90;;;;;;5055781;28;20330;-67
2021/07/11 07:53:14;;;;;;;;;;;18.50;99.90;;;;;;5073315;28;20020;-67
2021/07/11 07:55:41;;;;;;;;;;;18.50;99.90;;;;;;5075283;28;19920;-67
2021/07/11 07:58:07;;;;;;;;;;;18.50;99.90;;;;;;5070774;28;20275;-67
2021/07/11 08:00:34;;;;;;;;;;;18.50;99.90;;;;;;5071764;28;19959;-67
2021/07/11 08:03:01;;;;;;;;;;;18.50;99.90;;;;;;5073415;28;19964;-67
2021/07/11 08:05:27;;;;;;;;;;;18.50;99.90;;;;;;5075842;28;19920;-67
2021/07/11 08:07:54;;;;;;;;;;;18.60;99.90;;;;;;5071938;28;19971;-67
2021/07/11 08:10:21;;;;;;;;;;;18.60;99.90;;;;;;5064673;28;20087;-67
2021/07/11 08:12:47;;;;;;;;;;;18.60;99.90;;;;;;5069061;28;19966;-67
2021/07/11 08:15:16;;;;;;;;;;;18.60;99.90;;;;;;5072734;28;19978;-67
2021/07/11 08:17:47;;;;;;;;;;;18.60;99.90;;;;;;5054367;28;20019;-67
2021/07/11 08:20:15;;;;;;;;;;;18.60;99.90;;;;;;5070656;28;19982;-67
2021/07/11 08:22:42;;;;;;;;;;;18.60;99.90;;;;;;5071130;28;19943;-67
2021/07/11 08:25:08;;;;;;;;;;;18.70;99.90;;;;;;5071847;28;20015;-67
2021/07/11 08:27:36;;;;;;;;;;;18.70;99.90;;;;;;5059261;28;19959;-67
2021/07/11 08:30:04;;;;;;;;;;;18.70;99.90;;;;;;5071841;28;20318;-66
2021/07/11 08:32:30;;;;;;;;;;;18.70;99.90;;;;;;5068774;28;19920;-67
2021/07/11 08:34:57;;;;;;;;;;;18.80;99.90;;;;;;5061323;28;19960;-67
2021/07/11 08:37:24;;;;;;;;;;;18.80;99.90;;;;;;5053207;28;19925;-67
2021/07/11 08:39:51;;;;;;;;;;;18.80;99.90;;;;;;5064002;28;19928;-67
2021/07/11 08:42:18;;;;;;;;;;;18.80;99.90;;;;;;5052820;28;19967;-67
2021/07/11 08:44:46;;;;;;;;;;;18.90;99.90;;;;;;5069059;28;20011;-67
2021/07/11 08:47:12;;;;;;;;;;;18.90;99.90;;;;;;5063203;28;19962;-67
2021/07/11 08:49:39;;;;;;;;;;;18.90;99.90;;;;;;5071051;28;19963;-67
2021/07/11 08:52:06;;;;;;;;;;;18.90;99.90;;;;;;5068567;28;20011;-67
2021/07/11 08:54:33;;;;;;;;;;;18.90;99.90;;;;;;5067479;28;20403;-67
2021/07/11 08:57:01;;;;;;;;;;;18.90;99.90;;;;;;5068512;28;20311;-67
2021/07/11 08:59:28;;;;;;;;;;;18.90;99.90;;;;;;5069592;28;20379;-67
2021/07/11 09:01:55;;;;;;;;;;;18.90;99.90;;;;;;5067600;28;20431;-67
2021/07/11 09:04:22;;;;;;;;;;;19.00;99.90;;;;;;5068348;28;20031;-67
2021/07/11 09:06:49;;;;;;;;;;;19.00;99.90;;;;;;5070557;28;20304;-67
2021/07/11 09:09:27;;;;;;;;;;;19.00;99.90;;;;;;5051426;28;20247;-67
2021/07/11 09:11:55;;;;;;;;;;;19.10;99.90;;;;;;5066659;28;19981;-67
2021/07/11 09:14:22;;;;;;;;;;;19.20;99.90;;;;;;5068166;28;19975;-67
2021/07/11 09:16:50;;;;;;;;;;;19.40;99.90;;;;;;5066359;28;19959;-67
2021/07/11 09:19:31;;;;;;;;;;;19.40;99.90;;;;;;5067699;28;19928;-67
2021/07/11 09:22:08;;;;;;;;;;;19.60;99.90;;;;;;5066558;28;20565;-67
2021/07/11 09:24:35;;;;;;;;;;;19.70;99.90;;;;;;5058576;28;20036;-67
2021/07/11 09:27:12;;;;;;;;;;;19.80;99.90;;;;;;5067317;28;19966;-67
2021/07/11 09:29:39;;;;;;;;;;;20.00;99.90;;;;;;5068494;28;19963;-67
2021/07/11 09:32:07;;;;;;;;;;;20.10;99.90;;;;;;5067453;28;19932;-67
2021/07/11 09:34:38;;;;;;;;;;;20.10;99.90;;;;;;5068863;28;19927;-67
2021/07/11 09:37:06;;;;;;;;;;;20.10;99.90;;;;;;5051555;28;19990;-67
2021/07/11 09:39:33;;;;;;;;;;;20.20;99.90;;;;;;5069533;28;20550;-67
2021/07/11 09:42:02;;;;;;;;;;;20.10;99.90;;;;;;5060214;28;20425;-67
2021/07/11 09:44:39;;;;;;;;;;;20.10;99.90;;;;;;5055948;28;19924;-67
2021/07/11 09:47:15;;;;;;;;;;;20.10;99.90;;;;;;5065839;28;19963;-67
2021/07/11 09:49:42;;;;;;;;;;;20.00;99.90;;;;;;5067893;28;19952;-67
2021/07/11 09:52:09;;;;;;;;;;;20.00;99.90;;;;;;5064142;28;19925;-67
2021/07/11 09:54:36;;;;;;;;;;;20.00;99.90;;;;;;5070865;28;19976;-67
2021/07/11 09:57:07;;;;;;;;;;;20.00;99.90;;;;;;5065808;28;19959;-67
2021/07/11 09:59:34;;;;;;;;;;;20.00;99.90;;;;;;5069950;28;20046;-67
2021/07/11 10:02:00;;;;;;;;;;;20.00;99.90;;;;;;5067680;28;20036;-67
2021/07/11 10:04:27;;;;;;;;;;;20.10;99.90;;;;;;5052159;28;19924;-67
2021/07/11 10:06:54;;;;;;;;;;;20.20;99.90;;;;;;5061119;28;19931;-67
2021/07/11 10:09:21;;;;;;;;;;;20.30;99.90;;;;;;5050258;28;19959;-67
2021/07/11 10:11:47;;;;;;;;;;;20.40;99.90;;;;;;5067294;28;20051;-67
2021/07/11 10:14:14;;;;;;;;;;;20.40;99.90;;;;;;5070656;28;19977;-67
2021/07/11 10:16:41;;;;;;;;;;;20.50;99.90;;;;;;5068206;28;20013;-67
2021/07/11 10:19:09;;;;;;;;;;;20.60;99.90;;;;;;5050426;28;19932;-67
2021/07/11 10:21:36;;;;;;;;;;;20.60;99.90;;;;;;5066741;28;19997;-67
2021/07/11 10:24:03;;;;;;;;;;;20.60;99.90;;;;;;5053432;28;19948;-67
2021/07/11 10:26:35;;;;;;;;;;;20.70;99.90;;;;;;5061041;28;20028;-67
2021/07/11 10:29:09;;;;;;;;;;;20.80;99.90;;;;;;5067446;28;19920;-67
2021/07/11 10:31:42;;;;;;;;;;;20.80;99.90;;;;;;5066737;28;20380;-67
2021/07/11 10:34:09;;;;;;;;;;;20.90;99.90;;;;;;5063007;28;19924;-67
2021/07/11 10:36:39;;;;;;;;;;;20.90;99.90;;;;;;5067394;28;19975;-67
2021/07/11 10:39:08;;;;;;;;;;;20.90;99.90;;;;;;5067887;28;19942;-67
2021/07/11 10:41:45;;;;;;;;;;;20.90;99.90;;;;;;5061468;28;19963;-67
2021/07/11 10:44:12;;;;;;;;;;;20.90;99.90;;;;;;5071712;28;19924;-67
2021/07/11 10:46:47;;;;;;;;;;;20.90;99.90;;;;;;5068631;28;19974;-67
2021/07/11 10:49:21;;;;;;;;;;;20.90;99.90;;;;;;5066487;28;19931;-67
2021/07/11 10:51:49;;;;;;;;;;;21.00;99.90;;;;;;5067881;28;20252;-67
2021/07/11 10:54:17;;;;;;;;;;;21.00;99.90;;;;;;5070593;28;20318;-67
2021/07/11 10:56:44;;;;;;;;;;;21.20;99.90;;;;;;5072970;28;20028;-67
2021/07/11 10:59:10;;;;;;;;;;;21.20;99.90;;;;;;5069961;28;19970;-67
2021/07/11 11:01:40;;;;;;;;;;;21.30;99.90;;;;;;5072695;28;20092;-67
2021/07/11 11:04:15;;;;;;;;;;;21.30;99.90;;;;;;5073512;28;19956;-67
2021/07/11 11:06:42;;;;;;;;;;;21.40;99.90;;;;;;5071729;28;20054;-67
2021/07/11 11:09:08;;;;;;;;;;;21.40;99.90;;;;;;5071859;28;20386;-67
2021/07/11 11:11:35;;;;;;;;;;;21.40;99.90;;;;;;5066571;28;21390;-67
2021/07/11 11:14:03;;;;;;;;;;;21.40;99.90;;;;;;5056673;28;19975;-67
2021/07/11 11:16:39;;;;;;;;;;;21.50;99.90;;;;;;5064445;28;20014;-67
2021/07/11 11:19:12;;;;;;;;;;;21.50;99.90;;;;;;5075418;28;19952;-67
2021/07/11 11:21:39;;;;;;;;;;;21.50;99.90;;;;;;5069643;28;20694;-67
2021/07/11 11:24:05;;;;;;;;;;;21.50;99.90;;;;;;5072616;28;20032;-67
2021/07/11 11:26:32;;;;;;;;;;;21.50;99.90;;;;;;5072384;28;20027;-68
2021/07/11 11:29:00;;;;;;;;;;;21.50;99.90;;;;;;5070297;28;19928;-68
2021/07/11 11:31:27;;;;;;;;;;;21.50;99.90;;;;;;5067792;28;19921;-67
2021/07/11 11:34:05;;;;;;;;;;;21.50;99.90;;;;;;5068802;28;19936;-67
2021/07/11 11:36:35;;;;;;;;;;;21.50;99.90;;;;;;5071309;28;19920;-67
2021/07/11 11:39:05;;;;;;;;;;;21.60;99.90;;;;;;5073450;28;20333;-67
2021/07/11 11:41:32;;;;;;;;;;;21.70;99.90;;;;;;5071992;28;19955;-67
2021/07/11 11:44:09;;;;;;;;;;;21.70;99.90;;;;;;5071673;28;20026;-67
2021/07/11 11:46:36;;;;;;;;;;;21.80;99.90;;;;;;5071573;28;19995;-67
2021/07/11 11:49:05;;;;;;;;;;;21.90;99.90;;;;;;5069989;28;19947;-67
2021/07/11 11:51:32;;;;;;;;;;;21.90;99.90;;;;;;5067663;28;20015;-67
2021/07/11 11:53:59;;;;;;;;;;;22.00;99.90;;;;;;5069660;28;19924;-68
2021/07/11 11:56:26;;;;;;;;;;;22.00;99.90;;;;;;5061635;28;19920;-67
2021/07/11 11:59:03;;;;;;;;;;;22.00;99.90;;;;;;5070689;28;19962;-67
2021/07/11 12:01:32;;;;;;;;;;;22.00;99.90;;;;;;5068001;28;19998;-67
2021/07/11 12:04:13;;;;;;;;;;;22.10;99.90;;;;;;5070030;28;20022;-67
2021/07/11 12:06:40;;;;;;;;;;;22.10;99.90;;;;;;5071206;28;19928;-67
2021/07/11 12:09:07;;;;;;;;;;;22.20;99.90;;;;;;5072857;28;19956;-67
2021/07/11 12:11:34;;;;;;;;;;;22.20;99.90;;;;;;5067975;28;19936;-67
2021/07/11 12:14:08;;;;;;;;;;;22.30;99.90;;;;;;5071588;28;19928;-67
2021/07/11 12:16:35;;;;;;;;;;;22.30;99.90;;;;;;5068484;28;19963;-68
2021/07/11 12:19:06;;;;;;;;;;;22.30;99.90;;;;;;5071298;28;20519;-67
2021/07/11 12:21:33;;;;;;;;;;;22.30;99.90;;;;;;5069297;28;19924;-68
2021/07/11 12:24:02;;;;;;;;;;;22.40;99.90;;;;;;5070653;28;20020;-68
2021/07/11 12:26:29;;;;;;;;;;;22.40;99.90;;;;;;5070203;28;19983;-68
2021/07/11 12:28:57;;;;;;;;;;;22.30;99.90;;;;;;5070799;28;19964;-67
2021/07/11 12:31:25;;;;;;;;;;;22.30;99.90;;;;;;5071051;28;20037;-68
2021/07/11 12:33:59;;;;;;;;;;;22.30;99.90;;;;;;5071304;28;19927;-68
2021/07/11 12:36:26;;;;;;;;;;;22.40;99.90;;;;;;5069972;28;19952;-68
2021/07/11 12:38:53;;;;;;;;;;;22.40;99.90;;;;;;5071396;28;20383;-68
2021/07/11 12:41:26;;;;;;;;;;;22.40;99.90;;;;;;5052183;28;19959;-67
2021/07/11 12:43:56;;;;;;;;;;;22.30;99.90;;;;;;5070642;28;19924;-68
2021/07/11 12:46:26;;;;;;;;;;;22.30;99.90;;;;;;5067704;28;20020;-67
2021/07/11 12:48:56;;;;;;;;;;;22.30;99.90;;;;;;5059510;28;20375;-68
2021/07/11 12:51:24;;;;;;;;;;;22.30;99.90;;;;;;5059346;28;19971;-68
2021/07/11 12:53:55;;;;;;;;;;;22.20;99.90;;;;;;5070107;28;19967;-68
2021/07/11 12:56:23;;;;;;;;;;;22.20;99.90;;;;;;5069761;28;19994;-68
2021/07/11 12:58:50;;;;;;;;;;;22.20;99.90;;;;;;5058645;28;19921;-68
2021/07/11 13:01:17;;;;;;;;;;;22.10;99.90;;;;;;5063034;28;20437;-68
2021/07/11 13:03:54;;;;;;;;;;;22.00;99.90;;;;;;5070317;28;19930;-67
2021/07/11 13:06:28;;;;;;;;;;;21.90;99.90;;;;;;5070277;28;19929;-67
2021/07/11 13:08:55;;;;;;;;;;;21.90;99.90;;;;;;5048857;28;19999;-68
2021/07/11 13:11:20;;;;;;;;;;;21.80;99.90;;;;;;5051647;28;20050;-68
2021/07/11 13:13:47;;;;;;;;;;;21.80;99.90;;;;;;5072258;28;19928;-67
2021/07/11 13:16:14;;;;;;;;;;;21.90;99.90;;;;;;5072299;28;20029;-68
2021/07/11 13:18:41;;;;;;;;;;;21.90;99.90;;;;;;5066894;28;19919;-67
2021/07/11 13:21:07;;;;;;;;;;;21.90;99.90;;;;;;5066317;28;19982;-67
2021/07/11 13:23:34;;;;;;;;;;;21.90;99.90;;;;;;5049906;28;20454;-68
2021/07/11 13:26:01;;;;;;;;;;;21.90;99.90;;;;;;5068265;28;19969;-68
2021/07/11 13:28:28;;;;;;;;;;;21.90;99.90;;;;;;5070848;28;19963;-68
2021/07/11 13:30:55;;;;;;;;;;;22.00;99.90;;;;;;5070521;28;20058;-70
2021/07/11 13:33:22;;;;;;;;;;;22.10;99.90;;;;;;5060879;28;19928;-68
2021/07/11 13:35:49;;;;;;;;;;;22.10;99.90;;;;;;5070082;28;20297;-68
2021/07/11 13:38:15;;;;;;;;;;;22.20;99.90;;;;;;5067558;28;19974;-68
2021/07/11 13:40:42;;;;;;;;;;;22.20;99.90;;;;;;5050777;28;19932;-68
2021/07/11 13:43:09;;;;;;;;;;;22.20;99.90;;;;;;5052591;28;19963;-68
2021/07/11 13:45:39;;;;;;;;;;;22.20;99.90;;;;;;5067574;28;20004;-68
2021/07/11 13:48:07;;;;;;;;;;;22.00;99.90;;;;;;5065060;28;19928;-68
2021/07/11 13:50:34;;;;;;;;;;;21.90;99.90;;;;;;5069611;28;19920;-68
2021/07/11 13:53:01;;;;;;;;;;;21.90;99.90;;;;;;5066444;28;19927;-69
2021/07/11 13:55:28;;;;;;;;;;;21.80;99.90;;;;;;5067736;28;20018;-68
2021/07/11 13:57:55;;;;;;;;;;;21.80;99.90;;;;;;5066346;28;20346;-68
2021/07/11 14:00:22;;;;;;;;;;;21.80;99.90;;;;;;5072408;28;20010;-68
2021/07/11 14:02:48;;;;;;;;;;;21.80;99.90;;;;;;5062720;28;20236;-68
2021/07/11 14:05:17;;;;;;;;;;;21.80;99.90;;;;;;5053301;28;20402;-68
2021/07/11 14:07:44;;;;;;;;;;;21.70;99.90;;;;;;5066811;28;19968;-68
2021/07/11 14:10:11;;;;;;;;;;;21.70;99.90;;;;;;5053584;28;19965;-67
2021/07/11 14:12:38;;;;;;;;;;;21.70;99.90;;;;;;5050955;28;20014;-67
2021/07/11 14:15:05;;;;;;;;;;;21.80;99.90;;;;;;5068595;28;19924;-68
2021/07/11 14:17:32;;;;;;;;;;;21.80;99.90;;;;;;5063220;28;19974;-68
2021/07/11 14:19:59;;;;;;;;;;;22.00;99.90;;;;;;5067833;28;20291;-68